Albany, Australia
Current Conditions -  °F | °C
As of 5:30 PM on Monday 20 Oct 2014 (Local Time) from YABA Reporting Station
Rain Showers Rain Showers  
Wind Chill: 57°   Ceiling: 1600
Heat Index: 57°   Visibility: 4mi
Dew Point: 55°   Wind: 15mph
Humidity: 94%   Direction: 250°WSW
Pressure: 30.03"   Gusts: NA
Location:  35.02°S, 117.88°E
Report Text: YABA 200930Z 25013KT 6000 -SHRA FEW012 BKN016 14/13 Q1017
Loading
Personal Weather Stations






























Interactive Weather Map
Tropical Storm Tracking
New forecast layout! Learn more

10-Day Weather Forecast

Advertisements
Track Severe Weather on mobile